createdAt,value
2019-03-13T00:00:10.636Z,99.90
2019-03-13T00:02:40.880Z,99.90
2019-03-13T00:05:23.951Z,99.90
2019-03-13T00:07:53.678Z,99.90
2019-03-13T00:10:23.151Z,99.90
2019-03-13T00:12:52.908Z,99.90
2019-03-13T00:15:22.466Z,99.90
2019-03-13T00:17:51.934Z,99.90
2019-03-13T00:20:21.599Z,99.90
2019-03-13T00:22:51.100Z,99.90
2019-03-13T00:25:20.631Z,99.90
2019-03-13T00:27:50.346Z,99.90
2019-03-13T00:30:19.855Z,99.90
2019-03-13T00:32:49.338Z,99.90
2019-03-13T00:35:19.050Z,99.90
2019-03-13T00:37:48.550Z,99.90
2019-03-13T00:40:18.433Z,99.90
2019-03-13T00:42:47.967Z,99.90
2019-03-13T00:45:17.454Z,99.90
2019-03-13T00:47:46.955Z,99.90
2019-03-13T00:50:24.913Z,99.90
2019-03-13T00:52:54.416Z,99.90
2019-03-13T00:55:23.900Z,99.90
2019-03-13T00:57:53.400Z,99.90
2019-03-13T01:00:43.308Z,99.90
2019-03-13T01:03:30.083Z,99.90
2019-03-13T01:06:02.763Z,99.90
2019-03-13T01:08:32.680Z,99.90
2019-03-13T01:11:02.165Z,99.90
2019-03-13T01:13:32.010Z,99.90
2019-03-13T01:16:01.582Z,99.90
2019-03-13T01:18:31.478Z,99.90
2019-03-13T01:21:00.971Z,99.90
2019-03-13T01:23:30.511Z,99.90
2019-03-13T01:26:00.007Z,99.90
2019-03-13T01:28:29.499Z,99.90
2019-03-13T01:31:24.019Z,99.90
2019-03-13T01:33:55.135Z,99.90
2019-03-13T01:36:24.620Z,99.90
2019-03-13T01:38:54.433Z,99.90
2019-03-13T01:41:23.980Z,99.90
2019-03-13T01:43:53.687Z,99.90
2019-03-13T01:46:23.163Z,99.90
2019-03-13T01:48:52.723Z,99.90
2019-03-13T01:51:22.471Z,99.90
2019-03-13T01:53:52.001Z,99.90
2019-03-13T01:56:21.555Z,99.90
2019-03-13T01:58:51.095Z,99.90
2019-03-13T02:01:20.593Z,99.90
2019-03-13T02:03:50.133Z,99.90
2019-03-13T02:06:19.803Z,99.90
2019-03-13T02:08:49.319Z,99.90
2019-03-13T02:11:19.017Z,99.90
2019-03-13T02:13:48.529Z,99.90
2019-03-13T02:16:18.018Z,99.90
2019-03-13T02:18:47.848Z,99.90
2019-03-13T02:21:17.383Z,99.90
2019-03-13T02:23:46.899Z,99.90
2019-03-13T02:26:16.492Z,99.90
2019-03-13T02:28:46.009Z,99.90
2019-03-13T02:31:15.824Z,99.90
2019-03-13T02:33:45.294Z,99.90
2019-03-13T02:36:14.786Z,99.90
2019-03-13T02:38:44.506Z,99.90
2019-03-13T02:41:14.014Z,99.90
2019-03-13T02:43:43.556Z,99.90
2019-03-13T02:46:13.233Z,99.90
2019-03-13T02:48:42.739Z,99.90
2019-03-13T02:51:12.244Z,99.90
2019-03-13T02:53:41.872Z,99.90
2019-03-13T02:56:11.351Z,99.90
2019-03-13T02:58:41.045Z,99.90
2019-03-13T03:01:41.800Z,99.90
2019-03-13T03:04:12.167Z,99.90
2019-03-13T03:06:41.765Z,99.90
2019-03-13T03:09:11.407Z,99.90
2019-03-13T03:11:40.986Z,99.90
2019-03-13T03:14:10.700Z,99.90
2019-03-13T03:16:40.200Z,99.90
2019-03-13T03:19:09.686Z,99.90
2019-03-13T03:21:39.271Z,99.90
2019-03-13T03:24:08.793Z,99.90
2019-03-13T03:26:38.307Z,99.90
2019-03-13T03:29:07.818Z,99.90
2019-03-13T03:31:37.332Z,99.90
2019-03-13T03:34:06.852Z,99.90
2019-03-13T03:36:36.905Z,99.90
2019-03-13T03:39:07.309Z,99.90
2019-03-13T03:41:37.082Z,99.90
2019-03-13T03:44:06.514Z,99.90
2019-03-13T03:46:36.097Z,99.90
2019-03-13T03:49:05.700Z,99.90
2019-03-13T03:51:35.163Z,99.90
2019-03-13T03:54:04.896Z,99.90
2019-03-13T03:56:34.425Z,99.90
2019-03-13T03:59:03.884Z,99.90
2019-03-13T04:01:33.355Z,99.90
2019-03-13T04:04:02.891Z,99.90
2019-03-13T04:06:32.551Z,99.90
2019-03-13T04:09:02.399Z,99.90
2019-03-13T04:11:31.929Z,99.90
2019-03-13T04:14:01.543Z,99.90
2019-03-13T04:16:31.007Z,99.60
2019-03-13T04:19:00.535Z,99.70
2019-03-13T04:21:30.156Z,99.50
2019-03-13T04:23:59.644Z,99.50
2019-03-13T04:26:29.191Z,99.20
2019-03-13T04:28:58.672Z,99.00
2019-03-13T04:31:28.233Z,99.00
2019-03-13T04:33:57.795Z,98.60
2019-03-13T04:36:27.264Z,98.50
2019-03-13T04:38:56.873Z,98.20
2019-03-13T04:41:26.370Z,97.70
2019-03-13T04:43:55.886Z,97.40
2019-03-13T04:46:25.602Z,97.40
2019-03-13T04:48:55.108Z,97.10
2019-03-13T04:51:24.596Z,96.90
2019-03-13T04:53:54.295Z,96.60
2019-03-13T04:56:23.738Z,96.60
2019-03-13T04:58:53.241Z,96.30
2019-03-13T05:01:25.952Z,96.00
2019-03-13T05:03:54.165Z,95.40
2019-03-13T05:06:24.204Z,94.90
2019-03-13T05:09:05.030Z,94.80
2019-03-13T05:11:34.532Z,94.50
2019-03-13T05:14:04.012Z,94.50
2019-03-13T05:16:33.797Z,94.40
2019-03-13T05:19:03.319Z,93.80
2019-03-13T05:21:32.835Z,93.60
2019-03-13T05:24:02.394Z,93.40
2019-03-13T05:26:31.948Z,93.20
2019-03-13T05:29:01.507Z,93.40
2019-03-13T05:31:31.114Z,93.00
2019-03-13T05:34:00.584Z,92.40
2019-03-13T05:36:30.086Z,92.90
2019-03-13T05:38:59.604Z,92.90
2019-03-13T05:41:29.194Z,92.30
2019-03-13T05:43:58.700Z,92.40
2019-03-13T05:46:28.206Z,92.10
2019-03-13T05:48:57.674Z,91.50
2019-03-13T05:51:27.170Z,91.40
2019-03-13T05:53:56.709Z,91.10
2019-03-13T05:56:26.195Z,90.80
2019-03-13T05:58:55.653Z,90.20
2019-03-13T06:01:25.217Z,89.30
2019-03-13T06:03:54.788Z,89.90
2019-03-13T06:06:24.262Z,89.80
2019-03-13T06:08:53.781Z,89.10
2019-03-13T06:11:23.460Z,88.10
2019-03-13T06:13:52.955Z,87.50
2019-03-13T06:16:22.749Z,88.10
2019-03-13T06:18:53.086Z,87.90
2019-03-13T06:21:22.673Z,86.60
2019-03-13T06:23:52.195Z,86.20
2019-03-13T06:26:21.703Z,86.70
2019-03-13T06:28:51.185Z,87.20
2019-03-13T06:31:20.718Z,86.50
2019-03-13T06:33:50.246Z,87.90
2019-03-13T06:36:19.718Z,85.90
2019-03-13T06:38:49.189Z,85.20
2019-03-13T06:41:18.899Z,85.40
2019-03-13T06:43:48.390Z,84.80
2019-03-13T06:46:17.899Z,84.70
2019-03-13T06:48:47.675Z,83.70
2019-03-13T06:51:17.127Z,83.70
2019-03-13T06:53:47.005Z,83.80
2019-03-13T06:56:16.488Z,82.30
2019-03-13T06:58:55.225Z,81.70
2019-03-13T07:01:52.710Z,81.80
2019-03-13T07:04:46.985Z,83.00
2019-03-13T07:07:28.485Z,82.10
2019-03-13T07:10:22.818Z,81.30
2019-03-13T07:13:04.615Z,81.70
2019-03-13T07:15:42.062Z,80.70
2019-03-13T07:18:42.546Z,79.80
2019-03-13T07:21:33.758Z,79.10
2019-03-13T07:24:14.833Z,79.60
2019-03-13T07:27:03.269Z,78.90
2019-03-13T07:30:07.181Z,79.40
2019-03-13T07:33:01.579Z,79.60
2019-03-13T07:35:44.205Z,80.00
2019-03-13T07:38:35.669Z,79.90
2019-03-13T07:41:13.344Z,80.00
2019-03-13T07:44:16.854Z,80.10
2019-03-13T07:47:08.090Z,81.60
2019-03-13T07:49:59.661Z,80.10
2019-03-13T07:52:47.004Z,80.50
2019-03-13T07:55:33.386Z,80.40
2019-03-13T07:58:17.292Z,80.50
2019-03-13T08:01:20.842Z,80.00
2019-03-13T08:04:04.974Z,79.90
2019-03-13T08:06:52.024Z,77.80
2019-03-13T08:09:49.313Z,78.10
2019-03-13T08:12:40.767Z,79.20
2019-03-13T08:15:28.471Z,77.10
2019-03-13T08:18:04.873Z,77.10
2019-03-13T08:20:51.831Z,76.70
2019-03-13T08:23:39.982Z,75.80
2019-03-13T08:26:27.560Z,76.20
2019-03-13T08:29:24.777Z,73.80
2019-03-13T08:31:59.816Z,72.80
2019-03-13T08:34:57.490Z,73.80
2019-03-13T08:37:36.299Z,74.60
2019-03-13T08:40:22.398Z,73.90
2019-03-13T08:43:13.974Z,73.10
2019-03-13T08:46:01.074Z,72.50
2019-03-13T08:48:54.613Z,72.10
2019-03-13T08:51:39.662Z,72.20
2019-03-13T08:54:31.397Z,71.60
2019-03-13T08:57:31.670Z,69.60
2019-03-13T09:00:20.223Z,67.70
2019-03-13T09:03:14.600Z,68.60
2019-03-13T09:06:01.277Z,69.70
2019-03-13T09:08:58.277Z,69.60
2019-03-13T09:11:45.688Z,69.10
2019-03-13T09:14:25.533Z,69.20
2019-03-13T09:17:19.754Z,69.20
2019-03-13T09:19:56.218Z,69.70
2019-03-13T09:22:44.339Z,69.50
2019-03-13T09:25:42.642Z,69.40
2019-03-13T09:28:30.165Z,70.30
2019-03-13T09:31:13.361Z,71.00
2019-03-13T09:34:00.291Z,70.20
2019-03-13T09:36:48.805Z,71.50
2019-03-13T09:39:36.037Z,70.80
2019-03-13T09:42:24.762Z,72.40
2019-03-13T09:45:13.195Z,73.30
2019-03-13T09:48:00.673Z,75.20
2019-03-13T09:51:04.273Z,81.20
2019-03-13T09:53:45.711Z,83.70
2019-03-13T09:56:34.237Z,85.80
2019-03-13T09:59:22.686Z,87.00
2019-03-13T10:02:09.760Z,87.20
2019-03-13T10:05:10.569Z,89.40
2019-03-13T10:07:57.957Z,88.70
2019-03-13T10:10:37.001Z,85.20
2019-03-13T10:13:25.437Z,86.10
2019-03-13T10:16:32.403Z,83.70
2019-03-13T10:19:20.818Z,81.20
2019-03-13T10:22:21.317Z,80.20
2019-03-13T10:25:03.544Z,81.10
2019-03-13T10:27:41.927Z,81.40
2019-03-13T10:30:22.379Z,86.00
2019-03-13T10:33:10.794Z,90.10
2019-03-13T10:36:00.528Z,91.00
2019-03-13T10:38:55.259Z,90.90
2019-03-13T10:41:43.708Z,90.80
2019-03-13T10:44:44.534Z,91.80
2019-03-13T10:47:35.758Z,92.10
2019-03-13T10:50:25.553Z,93.20
2019-03-13T10:53:14.022Z,94.60
2019-03-13T10:56:01.357Z,95.70
2019-03-13T10:58:49.788Z,96.80
2019-03-13T11:01:33.904Z,97.30
2019-03-13T11:04:19.466Z,97.40
2019-03-13T11:07:06.540Z,98.90
2019-03-13T11:09:54.999Z,99.10
2019-03-13T11:12:38.488Z,99.20
2019-03-13T11:15:37.150Z,99.60
2019-03-13T11:18:30.209Z,99.80
2019-03-13T11:21:13.695Z,99.80
2019-03-13T11:24:14.443Z,99.80
2019-03-13T11:27:05.989Z,99.20
2019-03-13T11:30:00.514Z,99.40
2019-03-13T11:32:40.704Z,99.10
2019-03-13T11:35:27.997Z,99.50
2019-03-13T11:38:15.344Z,99.40
2019-03-13T11:40:55.330Z,99.10
2019-03-13T11:44:02.163Z,99.20
2019-03-13T11:46:47.822Z,99.40
2019-03-13T11:49:38.794Z,99.30
2019-03-13T11:52:34.141Z,99.20
2019-03-13T11:55:34.685Z,99.10
2019-03-13T11:58:26.260Z,99.40
2019-03-13T12:01:13.533Z,99.60
2019-03-13T12:04:04.869Z,99.70
2019-03-13T12:06:54.178Z,99.90
2019-03-13T12:09:42.598Z,99.90
2019-03-13T12:12:43.754Z,99.90
2019-03-13T12:15:28.427Z,99.90
2019-03-13T12:18:15.888Z,99.90
2019-03-13T12:20:59.156Z,99.90
2019-03-13T12:24:04.541Z,99.90
2019-03-13T12:26:51.448Z,99.90
2019-03-13T12:29:48.679Z,99.90
2019-03-13T12:32:33.314Z,99.90
2019-03-13T12:35:27.769Z,99.90
2019-03-13T12:38:22.025Z,99.90
2019-03-13T12:41:19.425Z,99.90
2019-03-13T12:43:56.535Z,99.90
2019-03-13T12:46:35.285Z,99.90
2019-03-13T12:49:29.723Z,99.90
2019-03-13T12:52:08.311Z,99.90
2019-03-13T12:55:15.268Z,99.90
2019-03-13T12:58:19.013Z,99.90
2019-03-13T13:01:03.618Z,99.90
2019-03-13T13:03:50.765Z,99.90
2019-03-13T13:06:39.173Z,99.90
2019-03-13T13:09:26.243Z,99.90
2019-03-13T13:12:12.488Z,99.90
2019-03-13T13:15:06.979Z,99.90
2019-03-13T13:17:53.558Z,99.90
2019-03-13T13:20:24.199Z,99.90
2019-03-13T13:22:53.969Z,99.90
2019-03-13T13:25:23.462Z,99.90
2019-03-13T13:27:52.939Z,99.70
2019-03-13T13:30:22.581Z,98.80
2019-03-13T13:32:52.041Z,98.80
2019-03-13T13:35:21.533Z,98.20
2019-03-13T13:37:51.049Z,98.10
2019-03-13T13:40:20.512Z,97.10
2019-03-13T13:42:49.974Z,96.60
2019-03-13T13:45:38.471Z,96.00
2019-03-13T13:48:07.974Z,95.50
2019-03-13T13:50:37.447Z,95.30
2019-03-13T13:53:06.963Z,95.20
2019-03-13T13:55:36.417Z,94.20
2019-03-13T13:58:05.854Z,94.30
2019-03-13T14:00:35.538Z,93.90
2019-03-13T14:03:05.008Z,94.20
2019-03-13T14:05:34.463Z,94.40
2019-03-13T14:08:04.012Z,94.20
2019-03-13T14:10:33.512Z,93.40
2019-03-13T14:13:02.953Z,93.00
2019-03-13T14:15:32.427Z,92.40
2019-03-13T14:18:01.860Z,93.10
2019-03-13T14:20:31.401Z,91.70
2019-03-13T14:23:00.937Z,92.60
2019-03-13T14:25:30.348Z,92.90
2019-03-13T14:28:00.235Z,93.30
2019-03-13T14:30:29.660Z,93.00
2019-03-13T14:32:59.233Z,93.30
2019-03-13T14:35:28.696Z,91.60
2019-03-13T14:37:58.143Z,92.00
2019-03-13T14:40:27.616Z,91.40
2019-03-13T14:42:57.203Z,91.30
2019-03-13T14:45:26.632Z,91.30
2019-03-13T14:47:56.063Z,90.80
2019-03-13T14:50:25.481Z,90.50
2019-03-13T14:52:54.969Z,90.20
2019-03-13T14:55:24.904Z,90.60
2019-03-13T14:57:54.622Z,90.00
2019-03-13T15:00:24.089Z,87.70
2019-03-13T15:02:53.631Z,85.60
2019-03-13T15:05:23.301Z,83.80
2019-03-13T15:07:52.747Z,83.00
2019-03-13T15:10:22.235Z,84.00
2019-03-13T15:12:51.980Z,83.90
2019-03-13T15:15:21.461Z,86.70
2019-03-13T15:17:53.113Z,85.80
2019-03-13T15:20:22.418Z,85.90
2019-03-13T15:22:51.897Z,87.10
2019-03-13T15:25:21.340Z,88.50
2019-03-13T15:27:50.865Z,89.70
2019-03-13T15:30:21.298Z,88.90
2019-03-13T15:32:50.749Z,90.00
2019-03-13T15:35:20.270Z,88.30
2019-03-13T15:37:49.905Z,90.40
2019-03-13T15:40:19.701Z,90.10
2019-03-13T15:42:49.766Z,90.80
2019-03-13T15:45:19.852Z,90.40
2019-03-13T15:47:49.289Z,91.20
2019-03-13T15:50:18.807Z,90.90
2019-03-13T15:52:48.243Z,90.00
2019-03-13T15:55:17.785Z,89.00
2019-03-13T15:57:47.555Z,90.40
2019-03-13T16:00:21.643Z,90.80
2019-03-13T16:02:51.138Z,90.30
2019-03-13T16:05:20.665Z,90.90
2019-03-13T16:07:50.653Z,91.40
2019-03-13T16:10:20.149Z,91.70
2019-03-13T16:12:49.998Z,92.40
2019-03-13T16:15:20.619Z,93.10
2019-03-13T16:17:50.172Z,93.80
2019-03-13T16:20:20.686Z,94.30
2019-03-13T16:22:54.580Z,94.20
2019-03-13T16:25:24.121Z,94.30
2019-03-13T16:27:53.702Z,94.40
2019-03-13T16:30:25.623Z,94.70
2019-03-13T16:32:55.409Z,95.20
2019-03-13T16:35:26.504Z,95.70
2019-03-13T16:37:56.106Z,96.00
2019-03-13T16:40:25.596Z,96.10
2019-03-13T16:42:55.042Z,96.00
2019-03-13T16:45:24.797Z,96.40
2019-03-13T16:47:54.637Z,96.30
2019-03-13T16:50:24.111Z,96.70
2019-03-13T16:52:54.075Z,96.80
2019-03-13T16:55:23.531Z,97.50
2019-03-13T16:57:52.977Z,98.00
2019-03-13T17:00:23.836Z,98.50
2019-03-13T17:02:53.306Z,98.50
2019-03-13T17:05:22.915Z,98.80
2019-03-13T17:07:52.825Z,99.10
2019-03-13T17:10:22.303Z,99.50
2019-03-13T17:12:51.786Z,99.60
2019-03-13T17:15:21.823Z,99.40
2019-03-13T17:17:51.406Z,99.80
2019-03-13T17:20:25.991Z,99.80
2019-03-13T17:22:53.984Z,99.90
2019-03-13T17:25:23.551Z,99.90
2019-03-13T17:27:53.036Z,99.90
2019-03-13T17:30:24.356Z,99.90
2019-03-13T17:32:53.963Z,99.90
2019-03-13T17:35:23.568Z,99.90
2019-03-13T17:37:53.461Z,99.90
2019-03-13T17:40:24.622Z,99.90
2019-03-13T17:42:55.754Z,99.90
2019-03-13T17:45:25.319Z,99.90
2019-03-13T17:47:55.088Z,99.90
2019-03-13T17:50:24.585Z,99.90
2019-03-13T17:52:54.125Z,99.90
2019-03-13T17:55:23.568Z,99.90
2019-03-13T17:57:53.337Z,99.90
2019-03-13T18:00:25.885Z,99.90
2019-03-13T18:02:55.384Z,99.90
2019-03-13T18:05:24.967Z,99.90
2019-03-13T18:07:54.414Z,99.90
2019-03-13T18:10:23.833Z,99.90
2019-03-13T18:12:53.469Z,99.90
2019-03-13T18:15:22.967Z,99.90
2019-03-13T18:17:52.440Z,99.90
2019-03-13T18:20:21.977Z,99.90
2019-03-13T18:22:51.446Z,99.90
2019-03-13T18:25:21.015Z,99.90
2019-03-13T18:27:50.773Z,99.90
2019-03-13T18:30:21.694Z,99.90
2019-03-13T18:32:51.350Z,99.90
2019-03-13T18:35:20.866Z,99.90
2019-03-13T18:37:50.372Z,99.90
2019-03-13T18:40:20.051Z,99.90
2019-03-13T18:42:49.616Z,99.90
2019-03-13T18:45:22.069Z,99.90
2019-03-13T18:47:51.574Z,99.90
2019-03-13T18:50:21.564Z,99.90
2019-03-13T18:52:51.126Z,99.90
2019-03-13T18:55:21.621Z,99.90
2019-03-13T18:57:51.362Z,99.90
2019-03-13T19:00:28.659Z,99.90
2019-03-13T19:02:58.576Z,99.90
2019-03-13T19:05:28.821Z,99.90
2019-03-13T19:07:58.430Z,99.90
2019-03-13T19:10:27.989Z,99.90
2019-03-13T19:12:57.743Z,99.90
2019-03-13T19:15:27.909Z,99.90
2019-03-13T19:18:00.490Z,99.90
2019-03-13T19:20:29.356Z,99.90
2019-03-13T19:22:58.874Z,99.90
2019-03-13T19:25:28.406Z,99.90
2019-03-13T19:27:58.970Z,99.90
2019-03-13T19:30:30.015Z,99.90
2019-03-13T19:33:04.305Z,99.90
2019-03-13T19:35:33.987Z,99.90
2019-03-13T19:38:05.305Z,99.90
2019-03-13T19:40:35.293Z,99.90
2019-03-13T19:43:05.021Z,99.90
2019-03-13T19:45:39.855Z,99.90
2019-03-13T19:48:09.484Z,99.90
2019-03-13T19:50:39.103Z,99.90
2019-03-13T19:53:08.759Z,99.90
2019-03-13T19:55:38.409Z,99.90
2019-03-13T19:58:07.971Z,99.90
2019-03-13T20:00:37.479Z,99.90
2019-03-13T20:03:07.796Z,99.90
2019-03-13T20:05:45.185Z,99.90
2019-03-13T20:08:08.525Z,99.90
2019-03-13T20:10:37.962Z,99.90
2019-03-13T20:13:07.461Z,99.90
2019-03-13T20:15:36.989Z,99.90
2019-03-13T20:18:06.898Z,99.90
2019-03-13T20:20:36.326Z,99.90
2019-03-13T20:23:05.948Z,99.90
2019-03-13T20:25:35.436Z,99.90
2019-03-13T20:28:06.835Z,99.90
2019-03-13T20:30:36.485Z,99.90
2019-03-13T20:33:06.091Z,99.90
2019-03-13T20:35:36.952Z,99.90
2019-03-13T20:38:06.862Z,99.90
2019-03-13T20:40:36.333Z,99.90
2019-03-13T20:43:05.799Z,99.90
2019-03-13T20:45:35.235Z,99.90
2019-03-13T20:48:04.834Z,99.90
2019-03-13T20:50:37.653Z,99.90
2019-03-13T20:53:05.435Z,99.90
2019-03-13T20:55:34.882Z,99.90
2019-03-13T20:58:04.335Z,99.90
2019-03-13T21:00:34.973Z,99.90
2019-03-13T21:03:05.349Z,99.90
2019-03-13T21:05:34.814Z,99.90
2019-03-13T21:08:04.254Z,99.90
2019-03-13T21:10:33.938Z,99.90
2019-03-13T21:13:03.436Z,99.90
2019-03-13T21:15:32.852Z,99.90
2019-03-13T21:18:02.389Z,99.90
2019-03-13T21:20:31.881Z,99.90
2019-03-13T21:23:01.289Z,99.90
2019-03-13T21:25:30.788Z,99.90
2019-03-13T21:28:00.202Z,99.90
2019-03-13T21:30:29.749Z,99.90
2019-03-13T21:32:59.205Z,99.90
2019-03-13T21:35:28.675Z,99.90
2019-03-13T21:37:58.146Z,99.90
2019-03-13T21:40:27.607Z,99.90
2019-03-13T21:42:57.072Z,99.90
2019-03-13T21:45:40.104Z,99.90
2019-03-13T21:47:57.605Z,99.90
2019-03-13T21:50:27.062Z,99.90
2019-03-13T21:52:56.573Z,99.90
2019-03-13T21:55:27.501Z,99.90
2019-03-13T21:57:57.207Z,99.90
2019-03-13T22:00:26.742Z,99.90
2019-03-13T22:02:56.259Z,99.90
2019-03-13T22:05:27.201Z,99.90
2019-03-13T22:07:57.067Z,99.90
2019-03-13T22:10:26.484Z,99.90
2019-03-13T22:12:55.911Z,99.90
2019-03-13T22:15:25.602Z,99.90
2019-03-13T22:17:55.059Z,99.90
2019-03-13T22:20:24.535Z,99.90
2019-03-13T22:22:53.987Z,99.90
2019-03-13T22:25:23.983Z,99.90
2019-03-13T22:27:53.445Z,99.90
2019-03-13T22:30:23.004Z,99.90
2019-03-13T22:32:52.967Z,99.90
2019-03-13T22:35:22.492Z,99.90
2019-03-13T22:37:51.994Z,99.90
2019-03-13T22:40:21.574Z,99.90
2019-03-13T22:42:50.951Z,99.90
2019-03-13T22:45:20.586Z,99.90
2019-03-13T22:47:49.991Z,99.90
2019-03-13T22:50:19.646Z,99.90
2019-03-13T22:52:49.089Z,99.90
2019-03-13T22:55:18.677Z,99.90
2019-03-13T22:57:48.157Z,99.90
2019-03-13T23:00:41.528Z,99.90
2019-03-13T23:03:11.833Z,99.90
2019-03-13T23:05:41.278Z,99.90
2019-03-13T23:08:10.668Z,99.90
2019-03-13T23:10:40.248Z,99.90
2019-03-13T23:13:09.999Z,99.90
2019-03-13T23:15:39.455Z,99.90
2019-03-13T23:18:08.933Z,99.90
2019-03-13T23:20:38.399Z,99.90
2019-03-13T23:23:07.845Z,99.90
2019-03-13T23:25:37.327Z,99.90
2019-03-13T23:28:06.752Z,99.90
2019-03-13T23:30:36.196Z,99.90
2019-03-13T23:33:05.690Z,99.90
2019-03-13T23:35:35.151Z,99.90
2019-03-13T23:38:04.742Z,99.90
2019-03-13T23:40:34.210Z,99.90
2019-03-13T23:43:03.702Z,99.90
2019-03-13T23:45:33.143Z,99.90
2019-03-13T23:48:02.597Z,99.90
2019-03-13T23:50:32.098Z,99.90
2019-03-13T23:53:01.496Z,99.90
2019-03-13T23:55:30.960Z,99.90
2019-03-13T23:58:00.451Z,99.90
